createdAt,value
2024-01-20T00:01:11.597Z,8.57
2024-01-20T00:03:48.211Z,9.27
2024-01-20T00:06:15.854Z,8.68
2024-01-20T00:08:43.664Z,8.85
2024-01-20T00:11:11.442Z,8.85
2024-01-20T00:13:39.568Z,9.15
2024-01-20T00:16:07.103Z,8.63
2024-01-20T00:18:35.081Z,8.60
2024-01-20T00:21:02.629Z,9.02
2024-01-20T00:23:30.524Z,8.70
2024-01-20T00:25:57.946Z,8.20
2024-01-20T00:28:25.729Z,8.30
2024-01-20T00:30:53.015Z,8.20
2024-01-20T00:33:20.862Z,8.45
2024-01-20T00:35:48.446Z,8.77
2024-01-20T00:38:16.314Z,8.95
2024-01-20T00:40:43.711Z,8.88
2024-01-20T00:43:11.420Z,8.63
2024-01-20T00:45:38.652Z,8.00
2024-01-20T00:48:06.438Z,8.48
2024-01-20T00:50:33.854Z,8.60
2024-01-20T00:53:01.544Z,8.30
2024-01-20T00:55:28.972Z,8.07
2024-01-20T00:57:56.571Z,8.88
2024-01-20T01:00:24.028Z,9.00
2024-01-20T01:02:51.667Z,8.60
2024-01-20T01:05:19.392Z,8.80
2024-01-20T01:07:47.417Z,9.02
2024-01-20T01:10:15.070Z,8.60
2024-01-20T01:12:42.745Z,8.77
2024-01-20T01:15:10.301Z,8.25
2024-01-20T01:17:38.420Z,8.07
2024-01-20T01:20:06.329Z,8.38
2024-01-20T01:22:34.383Z,8.27
2024-01-20T01:25:02.057Z,7.90
2024-01-20T01:27:30.127Z,8.02
2024-01-20T01:29:57.502Z,8.13
2024-01-20T01:32:26.713Z,8.38
2024-01-20T01:34:54.232Z,8.48
2024-01-20T01:37:22.111Z,8.00
2024-01-20T01:39:49.987Z,8.55
2024-01-20T01:42:17.527Z,8.30
2024-01-20T01:44:44.851Z,8.93
2024-01-20T01:47:12.607Z,7.72
2024-01-20T01:52:08.993Z,7.93
2024-01-20T01:54:36.500Z,8.50
2024-01-20T01:57:07.030Z,8.05
2024-01-20T01:59:35.582Z,8.35
2024-01-20T02:02:03.300Z,8.05
2024-01-20T02:04:31.172Z,8.10
2024-01-20T02:06:59.845Z,7.82
2024-01-20T02:09:27.411Z,7.63
2024-01-20T02:11:56.168Z,8.00
2024-01-20T02:14:23.573Z,8.13
2024-01-20T02:16:51.677Z,7.72
2024-01-20T02:19:19.055Z,7.15
2024-01-20T02:21:46.657Z,7.57
2024-01-20T02:24:14.499Z,7.40
2024-01-20T02:26:42.138Z,7.60
2024-01-20T02:29:09.383Z,7.78
2024-01-20T02:31:39.270Z,7.85
2024-01-20T02:34:06.941Z,7.43
2024-01-20T02:36:34.629Z,7.35
2024-01-20T02:39:01.922Z,7.78
2024-01-20T02:41:29.529Z,7.90
2024-01-20T02:43:56.802Z,7.68
2024-01-20T02:46:24.405Z,7.70
2024-01-20T02:48:52.004Z,7.82
2024-01-20T02:51:19.670Z,7.55
2024-01-20T02:53:46.973Z,7.38
2024-01-20T02:56:14.760Z,8.02
2024-01-20T02:58:42.045Z,8.27
2024-01-20T03:01:09.597Z,7.85
2024-01-20T03:03:37.094Z,7.57
2024-01-20T03:06:04.983Z,8.02
2024-01-20T03:08:32.272Z,7.22
2024-01-20T03:11:00.028Z,8.68
2024-01-20T03:13:27.520Z,8.48
2024-01-20T03:15:55.101Z,7.75
2024-01-20T03:18:22.605Z,8.40
2024-01-20T03:20:50.739Z,8.07
2024-01-20T03:23:18.214Z,7.85
2024-01-20T03:25:45.822Z,7.70
2024-01-20T03:28:13.118Z,7.93
2024-01-20T03:30:40.820Z,7.72
2024-01-20T03:33:08.403Z,8.13
2024-01-20T03:35:36.392Z,8.15
2024-01-20T03:38:04.905Z,7.82
2024-01-20T03:40:32.961Z,7.80
2024-01-20T03:43:00.517Z,8.32
2024-01-20T03:45:28.295Z,7.22
2024-01-20T03:47:55.765Z,7.45
2024-01-20T03:50:23.627Z,7.57
2024-01-20T03:52:50.976Z,7.18
2024-01-20T03:55:18.519Z,7.90
2024-01-20T03:57:45.781Z,6.88
2024-01-20T04:00:14.053Z,7.20
2024-01-20T04:02:41.476Z,7.53
2024-01-20T04:05:09.411Z,7.38
2024-01-20T04:07:38.126Z,7.45
2024-01-20T04:10:06.361Z,6.70
2024-01-20T04:12:33.802Z,6.90
2024-01-20T04:15:01.574Z,7.15
2024-01-20T04:17:29.040Z,7.45
2024-01-20T04:19:57.700Z,6.82
2024-01-20T04:22:25.520Z,6.57
2024-01-20T04:24:53.180Z,7.18
2024-01-20T04:27:20.536Z,6.55
2024-01-20T04:29:48.149Z,7.20
2024-01-20T04:32:15.393Z,6.68
2024-01-20T04:34:43.009Z,7.30
2024-01-20T04:37:10.910Z,7.20
2024-01-20T04:39:39.443Z,6.97
2024-01-20T04:42:08.427Z,6.80
2024-01-20T04:44:36.064Z,6.93
2024-01-20T04:47:03.659Z,6.60
2024-01-20T04:49:31.411Z,7.18
2024-01-20T04:52:02.839Z,6.57
2024-01-20T04:54:30.542Z,6.15
2024-01-20T04:56:58.833Z,6.82
2024-01-20T04:59:26.424Z,6.65
2024-01-20T05:01:54.013Z,6.38
2024-01-20T05:04:21.636Z,6.22
2024-01-20T05:06:49.801Z,6.22
2024-01-20T05:09:17.514Z,6.53
2024-01-20T05:11:44.862Z,6.30
2024-01-20T05:14:12.678Z,5.85
2024-01-20T05:16:40.003Z,5.88
2024-01-20T05:19:08.074Z,6.57
2024-01-20T05:21:35.681Z,6.38
2024-01-20T05:24:04.021Z,5.80
2024-01-20T05:26:32.490Z,5.90
2024-01-20T05:29:01.152Z,5.97
2024-01-20T05:31:32.929Z,5.88
2024-01-20T05:34:00.936Z,5.57
2024-01-20T05:36:28.474Z,6.15
2024-01-20T05:38:56.203Z,5.80
2024-01-20T05:41:23.523Z,5.63
2024-01-20T05:43:51.091Z,5.88
2024-01-20T05:46:21.441Z,5.35
2024-01-20T05:48:49.406Z,5.80
2024-01-20T05:51:16.934Z,5.45
2024-01-20T05:53:44.530Z,5.32
2024-01-20T05:56:12.036Z,5.88
2024-01-20T05:58:39.634Z,5.88
2024-01-20T06:01:10.556Z,5.40
2024-01-20T06:03:38.377Z,5.35
2024-01-20T06:06:06.333Z,5.10
2024-01-20T06:08:33.970Z,5.43
2024-01-20T06:11:01.270Z,5.50
2024-01-20T06:13:30.410Z,5.55
2024-01-20T06:15:57.727Z,5.07
2024-01-20T06:18:25.615Z,5.60
2024-01-20T06:20:53.383Z,5.65
2024-01-20T06:23:21.109Z,5.63
2024-01-20T06:25:48.958Z,5.25
2024-01-20T06:28:16.641Z,5.18
2024-01-20T06:30:47.434Z,5.38
2024-01-20T06:33:15.180Z,5.32
2024-01-20T06:35:42.861Z,5.22
2024-01-20T06:38:10.612Z,5.32
2024-01-20T06:40:37.956Z,4.55
2024-01-20T06:43:05.763Z,5.03
2024-01-20T06:45:34.858Z,5.10
2024-01-20T06:48:02.812Z,4.88
2024-01-20T06:50:30.450Z,5.13
2024-01-20T06:52:58.020Z,5.18
2024-01-20T06:55:26.207Z,4.85
2024-01-20T06:57:53.785Z,5.22
2024-01-20T07:00:21.560Z,5.13
2024-01-20T07:02:49.149Z,5.43
2024-01-20T07:05:16.648Z,5.25
2024-01-20T07:07:44.330Z,4.70
2024-01-20T07:10:12.376Z,5.15
2024-01-20T07:12:40.026Z,5.50
2024-01-20T07:15:07.982Z,6.60
2024-01-20T07:17:36.052Z,6.88
2024-01-20T07:20:04.168Z,6.10
2024-01-20T07:22:32.687Z,6.53
2024-01-20T07:25:00.279Z,6.70
2024-01-20T07:27:27.954Z,6.35
2024-01-20T07:29:55.522Z,6.28
2024-01-20T07:32:23.186Z,5.95
2024-01-20T07:34:50.822Z,6.35
2024-01-20T07:37:20.153Z,6.10
2024-01-20T07:39:48.268Z,6.25
2024-01-20T07:42:16.336Z,5.53
2024-01-20T07:44:43.675Z,6.80
2024-01-20T07:47:14.133Z,5.97
2024-01-20T07:49:41.562Z,5.30
2024-01-20T07:52:09.128Z,5.65
2024-01-20T07:54:36.531Z,5.68
2024-01-20T07:57:04.779Z,6.05
2024-01-20T07:59:32.334Z,6.25
2024-01-20T08:01:59.661Z,5.65
2024-01-20T08:04:27.738Z,5.82
2024-01-20T08:06:55.180Z,5.20
2024-01-20T08:09:22.744Z,5.45
2024-01-20T08:11:50.750Z,5.80
2024-01-20T08:14:18.388Z,5.75
2024-01-20T08:16:45.772Z,5.35
2024-01-20T08:19:13.447Z,5.20
2024-01-20T08:21:40.918Z,5.45
2024-01-20T08:24:08.540Z,5.68
2024-01-20T08:26:36.195Z,5.38
2024-01-20T08:29:03.789Z,5.55
2024-01-20T08:31:31.177Z,5.35
2024-01-20T08:33:58.984Z,5.30
2024-01-20T08:36:26.680Z,5.28
2024-01-20T08:38:54.248Z,5.05
2024-01-20T08:41:21.577Z,5.28
2024-01-20T08:43:49.224Z,5.32
2024-01-20T08:46:16.574Z,5.18
2024-01-20T08:48:44.302Z,5.35
2024-01-20T08:51:12.079Z,5.60
2024-01-20T08:53:40.593Z,5.28
2024-01-20T08:56:08.987Z,5.25
2024-01-20T08:58:36.633Z,5.60
2024-01-20T09:01:04.389Z,5.43
2024-01-20T09:03:32.661Z,4.95
2024-01-20T09:06:00.780Z,5.47
2024-01-20T09:08:28.447Z,5.40
2024-01-20T09:10:55.847Z,5.68
2024-01-20T09:13:23.494Z,5.90
2024-01-20T09:15:51.321Z,4.90
2024-01-20T09:18:20.955Z,5.45
2024-01-20T09:20:49.203Z,5.32
2024-01-20T09:23:16.785Z,5.57
2024-01-20T09:25:45.722Z,4.57
2024-01-20T09:28:13.294Z,5.47
2024-01-20T09:30:40.977Z,5.53
2024-01-20T09:33:08.859Z,5.05
2024-01-20T09:35:36.215Z,4.65
2024-01-20T09:38:04.474Z,5.18
2024-01-20T09:40:33.361Z,5.07
2024-01-20T09:43:01.432Z,5.13
2024-01-20T09:45:30.005Z,5.13
2024-01-20T09:47:58.772Z,5.22
2024-01-20T09:50:26.111Z,5.03
2024-01-20T09:53:01.452Z,4.75
2024-01-20T09:57:58.218Z,5.38
2024-01-20T10:00:25.625Z,5.20
2024-01-20T10:02:53.398Z,4.75
2024-01-20T10:05:24.940Z,4.75
2024-01-20T10:07:52.504Z,5.07
2024-01-20T10:10:22.589Z,5.22
2024-01-20T10:12:51.777Z,4.68
2024-01-20T10:15:29.845Z,5.30
2024-01-20T10:18:00.701Z,5.15
2024-01-20T10:20:35.086Z,4.95
2024-01-20T10:23:04.604Z,5.35
2024-01-20T10:25:32.559Z,5.35
2024-01-20T10:28:00.629Z,5.20
2024-01-20T10:30:29.978Z,5.18
2024-01-20T10:33:08.940Z,4.75
2024-01-20T10:35:39.200Z,4.82
2024-01-20T10:38:13.446Z,4.95
2024-01-20T10:40:43.842Z,5.13
2024-01-20T10:43:16.898Z,5.60
2024-01-20T10:46:02.254Z,4.82
2024-01-20T10:48:35.403Z,4.78
2024-01-20T10:51:08.346Z,4.93
2024-01-20T10:53:36.701Z,5.18
2024-01-20T10:56:05.621Z,4.90
2024-01-20T10:58:36.647Z,4.47
2024-01-20T11:01:05.073Z,4.63
2024-01-20T11:03:33.726Z,4.90
2024-01-20T11:06:01.415Z,4.47
2024-01-20T11:08:29.610Z,4.82
2024-01-20T11:10:56.918Z,4.80
2024-01-20T11:13:27.101Z,5.05
2024-01-20T11:15:56.115Z,4.95
2024-01-20T11:18:24.734Z,4.95
2024-01-20T11:21:02.669Z,4.97
2024-01-20T11:23:31.138Z,4.72
2024-01-20T11:26:09.884Z,4.95
2024-01-20T11:28:37.893Z,4.65
2024-01-20T11:31:05.731Z,4.82
2024-01-20T11:33:33.531Z,4.70
2024-01-20T11:36:01.433Z,4.65
2024-01-20T11:38:30.004Z,4.53
2024-01-20T11:41:01.627Z,5.18
2024-01-20T11:43:29.514Z,4.53
2024-01-20T11:45:58.318Z,4.95
2024-01-20T11:48:26.803Z,5.07
2024-01-20T11:50:54.864Z,4.65
2024-01-20T11:53:23.506Z,4.70
2024-01-20T11:55:55.301Z,5.13
2024-01-20T11:58:23.453Z,4.15
2024-01-20T12:00:53.321Z,4.60
2024-01-20T12:03:22.027Z,4.35
2024-01-20T12:05:51.119Z,4.32
2024-01-20T12:08:19.561Z,5.45
2024-01-20T12:10:47.323Z,4.53
2024-01-20T12:13:17.654Z,5.13
2024-01-20T12:15:47.981Z,4.63
2024-01-20T12:18:17.993Z,5.32
2024-01-20T12:20:45.902Z,4.30
2024-01-20T12:23:21.112Z,4.35
2024-01-20T12:28:20.985Z,4.95
2024-01-20T12:30:48.520Z,4.47
2024-01-20T12:33:16.252Z,4.50
2024-01-20T12:35:43.951Z,5.15
2024-01-20T12:38:11.899Z,4.53
2024-01-20T12:40:39.224Z,4.25
2024-01-20T12:43:06.889Z,4.25
2024-01-20T12:45:34.273Z,4.40
2024-01-20T12:48:01.926Z,4.43
2024-01-20T12:50:29.339Z,4.75
2024-01-20T12:52:57.198Z,4.32
2024-01-20T12:55:24.548Z,4.90
2024-01-20T12:57:52.562Z,4.65
2024-01-20T13:00:20.111Z,5.20
2024-01-20T13:02:47.740Z,5.05
2024-01-20T13:05:15.241Z,4.20
2024-01-20T13:07:43.113Z,4.80
2024-01-20T13:10:11.097Z,8.07
2024-01-20T13:12:39.354Z,8.55
2024-01-20T13:15:07.377Z,10.07
2024-01-20T13:17:35.078Z,10.35
2024-01-20T13:20:03.309Z,9.80
2024-01-20T13:22:30.926Z,9.68
2024-01-20T13:24:58.490Z,10.10
2024-01-20T13:27:26.214Z,9.55
2024-01-20T13:29:53.816Z,8.98
2024-01-20T13:32:21.726Z,9.65
2024-01-20T13:34:49.146Z,9.18
2024-01-20T13:37:16.830Z,8.90
2024-01-20T13:39:44.228Z,9.40
2024-01-20T13:42:12.515Z,8.23
2024-01-20T13:44:39.850Z,7.47
2024-01-20T13:47:07.987Z,9.18
2024-01-20T13:49:37.071Z,9.32
2024-01-20T13:52:05.342Z,9.63
2024-01-20T13:54:32.704Z,8.40
2024-01-20T13:57:00.339Z,7.93
2024-01-20T13:59:28.112Z,8.63
2024-01-20T14:01:58.720Z,8.13
2024-01-20T14:04:26.071Z,7.70
2024-01-20T14:06:53.980Z,7.50
2024-01-20T14:09:23.613Z,7.57
2024-01-20T14:11:51.290Z,8.20
2024-01-20T14:14:18.624Z,7.20
2024-01-20T14:16:59.043Z,7.13
2024-01-20T14:19:28.136Z,8.45
2024-01-20T14:21:56.538Z,7.00
2024-01-20T14:24:23.917Z,7.32
2024-01-20T14:26:51.598Z,7.40
2024-01-20T14:29:18.884Z,7.32
2024-01-20T14:31:50.927Z,7.25
2024-01-20T14:34:19.969Z,6.47
2024-01-20T14:36:52.353Z,6.55
2024-01-20T14:39:20.064Z,6.15
2024-01-20T14:41:47.752Z,6.47
2024-01-20T14:44:15.573Z,6.70
2024-01-20T14:46:43.450Z,6.50
2024-01-20T14:49:11.618Z,6.35
2024-01-20T14:51:40.611Z,6.40
2024-01-20T14:54:08.336Z,6.30
2024-01-20T14:56:40.806Z,6.45
2024-01-20T14:59:08.629Z,6.20
2024-01-20T15:01:38.446Z,6.25
2024-01-20T15:04:07.094Z,6.90
2024-01-20T15:06:34.928Z,6.18
2024-01-20T15:09:02.438Z,6.00
2024-01-20T15:11:30.059Z,5.93
2024-01-20T15:13:57.366Z,5.78
2024-01-20T15:16:24.923Z,6.80
2024-01-20T15:18:52.430Z,6.15
2024-01-20T15:21:22.203Z,6.03
2024-01-20T15:23:49.929Z,6.10
2024-01-20T15:26:30.398Z,6.25
2024-01-20T15:28:58.179Z,5.85
2024-01-20T15:31:25.781Z,5.40
2024-01-20T15:33:54.548Z,5.85
2024-01-20T15:36:22.212Z,5.70
2024-01-20T15:38:49.613Z,5.95
2024-01-20T15:41:17.454Z,5.88
2024-01-20T15:43:44.922Z,6.40
2024-01-20T15:46:12.828Z,5.22
2024-01-20T15:48:40.278Z,5.72
2024-01-20T15:51:07.922Z,5.65
2024-01-20T15:53:36.410Z,5.90
2024-01-20T15:56:04.351Z,5.75
2024-01-20T15:58:32.123Z,5.22
2024-01-20T16:01:00.170Z,5.32
2024-01-20T16:03:27.893Z,5.43
2024-01-20T16:05:55.631Z,5.57
2024-01-20T16:08:22.963Z,5.43
2024-01-20T16:10:50.703Z,5.30
2024-01-20T16:13:18.013Z,5.43
2024-01-20T16:15:45.836Z,5.13
2024-01-20T16:18:15.675Z,4.97
2024-01-20T16:20:43.345Z,5.07
2024-01-20T16:23:10.894Z,5.47
2024-01-20T16:25:39.273Z,5.88
2024-01-20T16:28:06.628Z,5.40
2024-01-20T16:30:34.654Z,5.55
2024-01-20T16:33:02.196Z,5.63
2024-01-20T16:35:29.821Z,5.03
2024-01-20T16:37:57.897Z,5.30
2024-01-20T16:40:25.778Z,5.68
2024-01-20T16:42:53.174Z,5.05
2024-01-20T16:45:20.951Z,5.47
2024-01-20T16:47:49.735Z,5.15
2024-01-20T16:50:18.139Z,5.35
2024-01-20T16:52:45.470Z,4.88
2024-01-20T16:55:15.201Z,5.65
2024-01-20T16:57:43.390Z,5.45
2024-01-20T17:00:13.166Z,5.13
2024-01-20T17:02:40.667Z,5.18
2024-01-20T17:05:08.353Z,4.93
2024-01-20T17:07:35.706Z,4.82
2024-01-20T17:10:03.924Z,4.90
2024-01-20T17:12:31.386Z,5.53
2024-01-20T17:14:59.047Z,5.00
2024-01-20T17:17:26.429Z,5.40
2024-01-20T17:19:54.589Z,5.47
2024-01-20T17:22:21.860Z,5.00
2024-01-20T17:24:49.522Z,4.93
2024-01-20T17:27:16.937Z,4.95
2024-01-20T17:29:44.659Z,5.10
2024-01-20T17:32:11.923Z,4.68
2024-01-20T17:34:40.090Z,4.82
2024-01-20T17:37:07.479Z,5.15
2024-01-20T17:39:39.003Z,5.30
2024-01-20T17:42:06.530Z,5.50
2024-01-20T17:44:35.012Z,5.65
2024-01-20T17:47:02.450Z,4.95
2024-01-20T17:49:30.248Z,5.32
2024-01-20T17:51:57.678Z,5.03
2024-01-20T17:54:28.506Z,4.97
2024-01-20T17:56:56.182Z,5.32
2024-01-20T17:59:23.736Z,5.30
2024-01-20T18:01:51.987Z,5.43
2024-01-20T18:04:19.768Z,5.30
2024-01-20T18:06:47.244Z,5.15
2024-01-20T18:09:14.876Z,5.60
2024-01-20T18:11:45.616Z,5.40
2024-01-20T18:14:13.734Z,5.50
2024-01-20T18:16:41.562Z,5.82
2024-01-20T18:19:10.797Z,5.70
2024-01-20T18:21:38.605Z,6.03
2024-01-20T18:24:06.459Z,6.03
2024-01-20T18:26:33.929Z,5.80
2024-01-20T18:29:01.458Z,6.32
2024-01-20T18:31:28.951Z,5.60
2024-01-20T18:33:56.620Z,5.60
2024-01-20T18:36:24.004Z,6.07
2024-01-20T18:38:53.304Z,5.93
2024-01-20T18:41:22.484Z,5.47
2024-01-20T18:43:50.239Z,5.65
2024-01-20T18:46:17.640Z,6.25
2024-01-20T18:48:45.388Z,5.75
2024-01-20T18:51:12.958Z,5.90
2024-01-20T18:53:42.668Z,4.78
2024-01-20T18:56:09.986Z,5.45
2024-01-20T18:58:38.120Z,6.00
2024-01-20T19:01:05.691Z,5.70
2024-01-20T19:03:33.503Z,5.80
2024-01-20T19:06:00.812Z,5.97
2024-01-20T19:08:28.440Z,5.40
2024-01-20T19:10:56.185Z,6.00
2024-01-20T19:13:23.764Z,5.82
2024-01-20T19:15:51.075Z,5.95
2024-01-20T19:18:18.896Z,6.10
2024-01-20T19:20:47.393Z,5.85
2024-01-20T19:23:16.859Z,5.63
2024-01-20T19:25:44.517Z,6.65
2024-01-20T19:28:12.109Z,5.55
2024-01-20T19:30:39.756Z,6.30
2024-01-20T19:33:09.131Z,5.97
2024-01-20T19:35:36.726Z,5.97
2024-01-20T19:38:04.655Z,6.20
2024-01-20T19:40:32.096Z,6.07
2024-01-20T19:42:59.806Z,5.63
2024-01-20T19:45:27.822Z,5.85
2024-01-20T19:47:55.526Z,5.95
2024-01-20T19:50:22.979Z,5.90
2024-01-20T19:52:50.710Z,6.03
2024-01-20T19:55:20.453Z,5.90
2024-01-20T19:57:48.175Z,5.78
2024-01-20T20:00:20.658Z,6.05
2024-01-20T20:02:48.748Z,6.15
2024-01-20T20:05:16.497Z,5.95
2024-01-20T20:07:44.843Z,6.40
2024-01-20T20:10:12.201Z,6.53
2024-01-20T20:12:40.050Z,6.13
2024-01-20T20:15:09.719Z,6.38
2024-01-20T20:17:38.185Z,6.32
2024-01-20T20:20:06.117Z,6.05
2024-01-20T20:22:33.841Z,5.68
2024-01-20T20:25:01.229Z,5.72
2024-01-20T20:27:28.981Z,5.82
2024-01-20T20:29:56.466Z,5.95
2024-01-20T20:32:25.675Z,5.97
2024-01-20T20:34:54.432Z,5.85
2024-01-20T20:37:22.448Z,6.10
2024-01-20T20:39:50.029Z,5.47
2024-01-20T20:42:18.041Z,5.85
2024-01-20T20:44:46.370Z,5.63
2024-01-20T20:47:14.940Z,6.32
2024-01-20T20:49:42.462Z,5.63
2024-01-20T20:52:10.112Z,6.05
2024-01-20T20:54:39.131Z,6.07
2024-01-20T20:57:07.798Z,5.65
2024-01-20T20:59:41.710Z,5.15
2024-01-20T21:02:09.726Z,6.40
2024-01-20T21:04:39.158Z,5.82
2024-01-20T21:07:08.121Z,6.03
2024-01-20T21:09:35.857Z,6.20
2024-01-20T21:12:03.961Z,5.90
2024-01-20T21:14:31.360Z,6.32
2024-01-20T21:16:58.933Z,5.93
2024-01-20T21:19:26.341Z,5.90
2024-01-20T21:21:54.544Z,6.18
2024-01-20T21:24:24.037Z,5.75
2024-01-20T21:26:51.852Z,5.85
2024-01-20T21:29:19.180Z,6.25
2024-01-20T21:31:46.875Z,5.80
2024-01-20T21:34:14.278Z,6.10
2024-01-20T21:36:41.899Z,5.95
2024-01-20T21:39:10.970Z,6.10
2024-01-20T21:41:38.986Z,6.47
2024-01-20T21:44:07.744Z,5.72
2024-01-20T21:46:36.863Z,6.18
2024-01-20T21:49:05.168Z,5.55
2024-01-20T21:51:33.276Z,6.18
2024-01-20T21:54:00.636Z,5.90
2024-01-20T21:56:28.419Z,6.05
2024-01-20T21:58:55.811Z,5.72
2024-01-20T22:01:23.708Z,6.18
2024-01-20T22:03:51.598Z,6.32
2024-01-20T22:06:19.296Z,6.10
2024-01-20T22:08:46.609Z,6.35
2024-01-20T22:11:14.585Z,6.70
2024-01-20T22:13:42.014Z,5.88
2024-01-20T22:16:09.589Z,6.22
2024-01-20T22:18:37.626Z,6.22
2024-01-20T22:21:11.193Z,5.97
2024-01-20T22:23:38.706Z,6.15
2024-01-20T22:26:07.529Z,6.43
2024-01-20T22:28:34.826Z,6.20
2024-01-20T22:31:02.526Z,6.00
2024-01-20T22:33:29.872Z,5.88
2024-01-20T22:35:57.617Z,6.32
2024-01-20T22:38:25.213Z,5.53
2024-01-20T22:40:54.958Z,5.85
2024-01-20T22:43:22.303Z,6.07
2024-01-20T22:45:50.091Z,5.90
2024-01-20T22:48:17.619Z,6.35
2024-01-20T22:50:46.277Z,6.03
2024-01-20T22:53:13.964Z,5.70
2024-01-20T22:55:41.714Z,6.22
2024-01-20T22:58:09.465Z,6.00
2024-01-20T23:00:40.092Z,6.22
2024-01-20T23:03:07.698Z,6.10
2024-01-20T23:05:35.567Z,5.80
2024-01-20T23:08:02.989Z,6.45
2024-01-20T23:10:30.721Z,6.35
2024-01-20T23:12:58.188Z,6.30
2024-01-20T23:15:26.384Z,5.63
2024-01-20T23:17:56.002Z,5.90
2024-01-20T23:20:23.657Z,5.93
2024-01-20T23:22:51.070Z,6.28
2024-01-20T23:25:18.964Z,6.05
2024-01-20T23:27:46.882Z,5.75
2024-01-20T23:30:14.923Z,6.25
2024-01-20T23:32:43.560Z,6.28
2024-01-20T23:35:11.602Z,5.55
2024-01-20T23:37:39.352Z,5.68
2024-01-20T23:40:07.394Z,5.53
2024-01-20T23:42:34.849Z,5.40
2024-01-20T23:45:03.016Z,5.95
2024-01-20T23:47:30.511Z,5.85
2024-01-20T23:49:59.827Z,5.80
2024-01-20T23:52:27.623Z,6.20
2024-01-20T23:54:55.207Z,5.70
2024-01-20T23:57:22.767Z,6.47
2024-01-20T23:59:50.378Z,6.50
